Time;durP1;ratioP1;P1;durP2;ratioP2;P2;SDS_P1;SDS_P2;PMS_P1;PMS_P2;Temp;Humidity;BMP_temperature;BMP_pressure;BME280_temperature;BME280_humidity;BME280_pressure;Samples;Min_cycle;Max_cycle;Signal;HPM_P1;HPM_P2
2024/01/25 00:01:11;;;;;;;0.60;0.60;;;9.30;99.90;;;;;;5050228;28;20227;-86
2024/01/25 00:03:37;;;;;;;0.73;0.73;;;9.40;1.00;;;;;;5057708;28;20218;-87
2024/01/25 00:06:04;;;;;;;0.60;0.60;;;9.30;1.00;;;;;;5034989;28;20214;-88
2024/01/25 00:08:29;;;;;;;0.60;0.60;;;9.40;1.00;;;;;;5043727;28;20180;-86
2024/01/25 00:10:55;;;;;;;0.70;0.70;;;9.40;1.00;;;;;;5043878;28;20179;-87
2024/01/25 00:13:20;;;;;;;0.70;0.70;;;9.50;99.90;;;;;;5051115;28;20556;-88
2024/01/25 00:15:46;;;;;;;0.60;0.60;;;9.50;99.90;;;;;;5035090;28;20188;-87
2024/01/25 00:18:11;;;;;;;0.70;0.70;;;9.50;20.20;;;;;;5033219;28;20243;-88
2024/01/25 00:20:37;;;;;;;0.50;0.50;;;9.50;1.00;;;;;;5034422;28;20182;-88
2024/01/25 00:23:03;;;;;;;0.60;0.60;;;9.50;1.00;;;;;;5033578;28;20206;-89
2024/01/25 00:25:28;;;;;;;0.70;0.70;;;9.50;1.00;;;;;;5033844;28;20179;-88
2024/01/25 00:27:54;;;;;;;0.60;0.60;;;9.60;1.00;;;;;;5032171;28;20199;-88
2024/01/25 00:30:20;;;;;;;0.70;0.70;;;9.60;1.00;;;;;;5031142;28;20200;-86
2024/01/25 00:32:45;;;;;;;0.70;0.70;;;9.60;1.00;;;;;;5025182;28;20196;-88
2024/01/25 00:35:13;;;;;;;0.60;0.60;;;9.70;99.90;;;;;;5012356;28;20176;-87
2024/01/25 00:37:40;;;;;;;0.70;0.70;;;9.70;99.90;;;;;;5012753;28;20204;-88
2024/01/25 00:40:06;;;;;;;0.50;0.50;;;9.70;99.90;;;;;;5013154;28;20181;-88
2024/01/25 00:42:40;;;;;;;0.60;0.60;;;9.80;99.90;;;;;;5013414;28;20202;-88
2024/01/25 00:45:06;;;;;;;0.70;0.70;;;9.80;99.90;;;;;;5012867;28;20267;-88
2024/01/25 00:47:32;;;;;;;0.50;0.50;;;9.80;1.00;;;;;;5013395;28;20203;-88
2024/01/25 00:49:58;;;;;;;0.70;0.70;;;9.80;1.00;;;;;;5013648;28;20168;-88
2024/01/25 00:52:24;;;;;;;0.60;0.60;;;9.80;1.00;;;;;;5013470;28;20192;-88
2024/01/25 00:54:50;;;;;;;0.70;0.70;;;9.80;1.00;;;;;;5013424;28;20564;-89
2024/01/25 00:57:16;;;;;;;0.70;0.70;;;9.90;1.00;;;;;;5013246;28;20196;-89
2024/01/25 00:59:42;;;;;;;0.70;0.70;;;9.90;1.00;;;;;;5012805;28;20176;-88
2024/01/25 01:02:12;;;;;;;0.60;0.60;;;9.90;1.00;;;;;;5012666;28;20263;-88
2024/01/25 01:04:37;;;;;;;0.77;0.77;;;10.00;1.00;;;;;;5013965;28;20250;-89
2024/01/25 01:07:03;;;;;;;0.70;0.70;;;9.90;1.00;;;;;;5013917;28;20193;-89
2024/01/25 01:09:29;;;;;;;0.70;0.70;;;9.90;1.00;;;;;;5014225;28;20173;-88
2024/01/25 01:11:55;;;;;;;0.70;0.70;;;9.90;1.00;;;;;;5014928;28;20572;-88
2024/01/25 01:14:20;;;;;;;0.70;0.70;;;9.90;36.30;;;;;;5014383;28;20544;-88
2024/01/25 01:16:46;;;;;;;0.70;0.70;;;9.90;1.00;;;;;;5013569;28;20272;-88
2024/01/25 01:19:11;;;;;;;0.63;0.63;;;9.90;23.70;;;;;;5013800;28;20172;-88
2024/01/25 01:21:38;;;;;;;0.70;0.70;;;10.00;1.00;;;;;;5013567;28;20183;-86
2024/01/25 01:24:04;;;;;;;0.60;0.60;;;9.90;1.00;;;;;;5032620;28;20187;-88
2024/01/25 01:26:30;;;;;;;0.70;0.70;;;9.90;1.00;;;;;;5032595;28;20259;-88
2024/01/25 01:28:55;;;;;;;0.60;0.60;;;10.00;1.00;;;;;;5033590;28;20176;-84
2024/01/25 01:31:21;;;;;;;0.60;0.60;;;10.10;1.00;;;;;;5033335;28;20580;-88
2024/01/25 01:33:47;;;;;;;0.70;0.70;;;9.90;1.00;;;;;;5032907;28;20263;-86
2024/01/25 01:36:12;;;;;;;0.70;0.70;;;9.90;1.00;;;;;;5032477;28;20196;-89
2024/01/25 01:38:38;;;;;;;0.60;0.60;;;9.90;1.00;;;;;;5032684;28;20203;-88
2024/01/25 01:41:04;;;;;;;0.80;0.80;;;9.80;99.90;;;;;;5033332;28;20175;-87
2024/01/25 01:43:29;;;;;;;0.60;0.60;;;9.80;1.00;;;;;;5033104;28;20172;-89
2024/01/25 01:46:03;;;;;;;0.57;0.57;;;9.80;87.10;;;;;;5033497;28;20168;-88
2024/01/25 01:48:29;;;;;;;0.57;0.57;;;9.80;99.90;;;;;;5036106;28;20174;-87
2024/01/25 01:50:55;;;;;;;0.60;0.60;;;9.80;1.00;;;;;;5034967;28;20696;-88
2024/01/25 01:53:21;;;;;;;0.60;0.60;;;9.80;99.90;;;;;;5036530;28;20207;-88
2024/01/25 01:55:47;;;;;;;0.60;0.60;;;9.90;99.90;;;;;;5036197;28;20847;-88
2024/01/25 01:58:13;;;;;;;0.60;0.60;;;9.90;1.00;;;;;;5035589;28;20218;-88
2024/01/25 02:00:40;;;;;;;0.60;0.60;;;9.90;99.90;;;;;;5036217;28;20255;-86
2024/01/25 02:03:06;;;;;;;0.60;0.60;;;9.90;1.00;;;;;;5020380;28;20177;-88
2024/01/25 02:05:32;;;;;;;0.60;0.60;;;9.90;1.00;;;;;;5015929;28;20259;-87
2024/01/25 02:07:57;;;;;;;0.60;0.60;;;9.90;1.00;;;;;;5015571;28;20784;-89
2024/01/25 02:10:23;;;;;;;0.70;0.70;;;9.90;1.00;;;;;;5017649;28;20204;-87
2024/01/25 02:12:49;;;;;;;0.60;0.60;;;9.90;1.00;;;;;;5020593;28;20191;-88
2024/01/25 02:15:14;;;;;;;0.60;0.60;;;9.90;1.00;;;;;;5035461;28;20187;-87
2024/01/25 02:17:40;;;;;;;0.60;0.60;;;9.80;1.00;;;;;;5033877;28;20199;-87
2024/01/25 02:20:06;;;;;;;0.60;0.60;;;9.80;1.00;;;;;;5023100;28;20177;-86
2024/01/25 02:22:32;;;;;;;0.63;0.63;;;9.80;1.00;;;;;;5015591;28;20573;-88
2024/01/25 02:24:58;;;;;;;0.70;0.70;;;9.80;78.60;;;;;;5024432;28;20684;-86
2024/01/25 02:27:23;;;;;;;0.60;0.60;;;9.80;99.90;;;;;;5034488;28;20200;-86
2024/01/25 02:29:49;;;;;;;0.60;0.60;;;9.70;1.00;;;;;;5036151;28;20172;-85
2024/01/25 02:32:14;;;;;;;0.60;0.60;;;9.80;1.00;;;;;;5035024;28;20243;-88
2024/01/25 02:34:40;;;;;;;0.70;0.70;;;9.80;1.00;;;;;;5037238;28;20203;-88
2024/01/25 02:37:05;;;;;;;0.63;0.63;;;9.90;1.00;;;;;;5035090;28;20230;-87
2024/01/25 02:39:31;;;;;;;0.60;0.60;;;9.80;1.00;;;;;;5037285;28;20175;-89
2024/01/25 02:41:57;;;;;;;0.60;0.60;;;9.80;99.90;;;;;;5054500;28;20179;-86
2024/01/25 02:44:22;;;;;;;0.77;0.77;;;9.80;1.00;;;;;;5059236;28;20223;-82
2024/01/25 02:46:48;;;;;;;0.70;0.70;;;9.70;1.00;;;;;;5047405;28;20244;-87
2024/01/25 02:49:13;;;;;;;0.70;0.70;;;9.70;1.00;;;;;;5014600;28;20546;-85
2024/01/25 02:51:39;;;;;;;0.70;0.70;;;9.70;40.10;;;;;;5014519;28;20212;-85
2024/01/25 02:54:04;;;;;;;0.60;0.60;;;9.70;1.00;;;;;;5014876;28;20185;-84
2024/01/25 02:56:34;;;;;;;0.50;0.50;;;9.60;90.90;;;;;;5013886;28;20188;-86
2024/01/25 02:59:01;;;;;;;0.80;0.80;;;9.60;1.00;;;;;;5014645;28;20187;-87
2024/01/25 03:01:26;;;;;;;0.63;0.63;;;9.60;1.00;;;;;;5014863;28;20566;-86
2024/01/25 03:03:52;;;;;;;0.60;0.60;;;9.60;99.90;;;;;;5014217;28;20177;-87
2024/01/25 03:06:17;;;;;;;0.67;0.67;;;9.60;1.00;;;;;;5014556;28;20196;-85
2024/01/25 03:08:43;;;;;;;0.80;0.80;;;9.60;1.00;;;;;;5015474;28;20179;-87
2024/01/25 03:11:08;;;;;;;0.60;0.60;;;9.60;1.00;;;;;;5013779;28;20292;-88
2024/01/25 03:13:34;;;;;;;0.50;0.50;;;9.60;1.00;;;;;;5015352;28;20708;-88
2024/01/25 03:16:00;;;;;;;0.60;0.60;;;9.60;1.00;;;;;;5015023;28;20260;-87
2024/01/25 03:18:25;;;;;;;0.60;0.60;;;9.60;20.00;;;;;;5015339;28;20374;-88
2024/01/25 03:20:51;;;;;;;0.77;0.77;;;9.60;99.90;;;;;;5016242;28;20181;-88
2024/01/25 03:23:17;;;;;;;0.80;0.80;;;9.70;99.90;;;;;;5017181;28;20176;-86
2024/01/25 03:25:42;;;;;;;0.70;0.70;;;9.70;87.40;;;;;;5016330;28;20196;-86
2024/01/25 03:28:09;;;;;;;0.60;0.60;;;9.70;99.90;;;;;;5015373;28;20279;-88
2024/01/25 03:30:35;;;;;;;0.50;0.50;;;9.60;99.90;;;;;;5017027;28;20204;-86
2024/01/25 03:33:00;;;;;;;0.63;0.63;;;9.60;99.90;;;;;;5016854;28;20180;-85
2024/01/25 03:35:26;;;;;;;0.50;0.50;;;9.60;99.90;;;;;;5018476;28;20177;-86
2024/01/25 03:37:51;;;;;;;0.70;0.70;;;9.60;99.90;;;;;;5016263;28;20250;-88
2024/01/25 03:40:17;;;;;;;0.60;0.60;;;9.60;1.00;;;;;;5022006;28;20180;-85
2024/01/25 03:42:42;;;;;;;0.70;0.70;;;9.60;1.00;;;;;;5021364;28;20263;-87
2024/01/25 03:45:08;;;;;;;0.70;0.70;;;9.60;1.00;;;;;;5018651;28;20181;-85
2024/01/25 03:47:34;;;;;;;0.70;0.70;;;9.50;1.00;;;;;;5017589;28;20350;-86
2024/01/25 03:50:00;;;;;;;0.60;0.60;;;9.50;99.90;;;;;;5017845;28;20180;-87
2024/01/25 03:52:25;;;;;;;0.63;0.63;;;9.50;1.00;;;;;;5018978;28;20207;-86
2024/01/25 03:54:51;;;;;;;0.70;0.70;;;9.40;99.90;;;;;;5017752;28;20211;-85
2024/01/25 03:57:16;;;;;;;0.70;0.70;;;9.40;1.00;;;;;;5016608;28;20196;-88
2024/01/25 03:59:42;;;;;;;0.67;0.67;;;9.40;1.00;;;;;;5017312;28;20223;-87
2024/01/25 04:02:09;;;;;;;0.60;0.60;;;9.40;1.00;;;;;;5015367;28;20190;-87
2024/01/25 04:04:34;;;;;;;0.70;0.70;;;9.40;99.90;;;;;;5015071;28;20572;-87
2024/01/25 04:07:00;;;;;;;0.70;0.70;;;9.40;99.90;;;;;;5028057;28;20192;-85
2024/01/25 04:09:26;;;;;;;0.60;0.60;;;9.40;1.00;;;;;;5037227;28;20173;-80
2024/01/25 04:11:51;;;;;;;0.70;0.70;;;9.40;1.00;;;;;;5038078;28;20234;-85
2024/01/25 04:14:17;;;;;;;0.60;0.60;;;9.40;99.90;;;;;;5037533;28;20235;-82
2024/01/25 04:16:42;;;;;;;0.50;0.50;;;9.30;1.00;;;;;;5035146;28;20604;-86
2024/01/25 04:19:12;;;;;;;0.77;0.77;;;9.30;1.00;;;;;;5033981;28;20264;-86
2024/01/25 04:21:37;;;;;;;0.60;0.60;;;9.40;1.00;;;;;;5034509;28;20172;-84
2024/01/25 04:24:04;;;;;;;0.60;0.60;;;9.30;1.80;;;;;;5032942;28;20180;-87
2024/01/25 04:26:30;;;;;;;0.70;0.70;;;9.20;99.90;;;;;;5014161;28;20200;-87
2024/01/25 04:28:55;;;;;;;0.60;0.60;;;9.20;99.90;;;;;;5021184;28;20180;-85
2024/01/25 04:31:21;;;;;;;0.70;0.70;;;9.20;99.90;;;;;;5020161;28;20211;-86
2024/01/25 04:33:47;;;;;;;0.80;0.80;;;9.20;99.90;;;;;;5017225;28;20180;-87
2024/01/25 04:36:12;;;;;;;0.70;0.70;;;9.30;1.00;;;;;;5017307;28;20254;-85
2024/01/25 04:38:38;;;;;;;0.70;0.70;;;9.30;99.90;;;;;;5016247;28;20661;-87
2024/01/25 04:41:05;;;;;;;0.70;0.70;;;9.30;99.90;;;;;;5027973;28;20202;-86
2024/01/25 04:43:35;;;;;;;0.60;0.60;;;9.30;99.90;;;;;;5036994;28;20173;-85
2024/01/25 04:46:01;;;;;;;0.60;0.60;;;9.30;1.00;;;;;;5036267;28;20187;-82
2024/01/25 04:48:26;;;;;;;0.60;0.60;;;9.30;1.00;;;;;;5036909;28;20187;-86
2024/01/25 04:50:52;;;;;;;0.80;0.80;;;9.30;1.00;;;;;;5035503;28;20255;-87
2024/01/25 04:53:17;;;;;;;0.70;0.70;;;9.40;99.90;;;;;;5022240;28;20180;-85
2024/01/25 04:55:43;;;;;;;0.63;0.63;;;9.30;1.00;;;;;;5020057;28;20180;-86
2024/01/25 04:58:09;;;;;;;0.60;0.60;;;9.30;99.90;;;;;;5016959;28;20280;-86
2024/01/25 05:00:35;;;;;;;0.67;0.67;;;9.20;1.00;;;;;;5015296;28;20192;-87
2024/01/25 05:03:00;;;;;;;0.60;0.60;;;9.20;99.90;;;;;;5018706;28;20184;-86
2024/01/25 05:05:26;;;;;;;0.70;0.70;;;9.20;99.90;;;;;;5019638;28;20315;-84
2024/01/25 05:07:52;;;;;;;0.63;0.63;;;9.30;99.90;;;;;;5035099;28;20197;-88
2024/01/25 05:10:17;;;;;;;0.70;0.70;;;9.20;99.90;;;;;;5035497;28;20172;-86
2024/01/25 05:12:43;;;;;;;0.70;0.70;;;9.20;99.90;;;;;;5035532;28;20212;-88
2024/01/25 05:15:09;;;;;;;0.60;0.60;;;9.40;1.00;;;;;;5034585;28;20172;-86
2024/01/25 05:17:35;;;;;;;0.70;0.70;;;9.10;99.90;;;;;;5035844;28;20256;-88
2024/01/25 05:20:00;;;;;;;0.60;0.60;;;9.20;1.00;;;;;;5037122;28;20168;-85
2024/01/25 05:22:26;;;;;;;0.70;0.70;;;9.10;1.00;;;;;;5034816;28;20180;-87
2024/01/25 05:24:53;;;;;;;0.70;0.70;;;9.10;99.90;;;;;;5025770;28;20583;-88
2024/01/25 05:27:19;;;;;;;0.70;0.70;;;9.00;1.00;;;;;;5019778;28;20197;-86
2024/01/25 05:29:44;;;;;;;0.50;0.50;;;9.00;1.00;;;;;;5040196;28;20164;-87
2024/01/25 05:32:10;;;;;;;0.60;0.60;;;9.00;1.00;;;;;;5033316;28;20216;-88
2024/01/25 05:34:35;;;;;;;0.70;0.70;;;8.90;99.90;;;;;;5016054;28;20176;-88
2024/01/25 05:37:01;;;;;;;0.70;0.70;;;8.90;1.00;;;;;;5014955;28;20200;-84
2024/01/25 05:39:27;;;;;;;0.67;0.67;;;8.90;1.00;;;;;;5018077;28;20181;-88
2024/01/25 05:41:53;;;;;;;0.67;0.67;;;8.80;1.00;;;;;;5016647;28;20598;-88
2024/01/25 05:44:19;;;;;;;0.70;0.70;;;8.70;1.00;;;;;;5016661;28;20560;-87
2024/01/25 05:46:44;;;;;;;0.50;0.50;;;8.60;1.00;;;;;;5016951;28;20196;-89
2024/01/25 05:49:10;;;;;;;0.60;0.60;;;8.60;99.90;;;;;;5017189;28;20187;-88
2024/01/25 05:51:35;;;;;;;0.60;0.60;;;8.50;99.90;;;;;;5017956;28;20231;-88
2024/01/25 05:54:01;;;;;;;0.70;0.70;;;8.50;99.90;;;;;;5015124;28;20175;-87
2024/01/25 05:56:27;;;;;;;0.70;0.70;;;8.40;1.00;;;;;;5017457;28;20265;-88
2024/01/25 05:58:53;;;;;;;0.70;0.70;;;8.40;1.00;;;;;;5016696;28;20502;-87
2024/01/25 06:01:19;;;;;;;0.70;0.70;;;8.30;99.90;;;;;;5017329;28;20628;-88
2024/01/25 06:03:44;;;;;;;0.70;0.70;;;8.20;1.00;;;;;;5017294;28;20662;-88
2024/01/25 06:06:10;;;;;;;0.73;0.73;;;8.10;1.00;;;;;;5015919;28;20335;-86
2024/01/25 06:08:35;;;;;;;0.60;0.60;;;8.10;99.90;;;;;;5016475;28;20235;-87
2024/01/25 06:11:01;;;;;;;0.70;0.70;;;8.10;1.00;;;;;;5016290;28;20204;-87
2024/01/25 06:13:27;;;;;;;0.70;0.70;;;8.00;1.00;;;;;;5018434;28;20177;-88
2024/01/25 06:15:52;;;;;;;0.80;0.80;;;7.90;99.90;;;;;;5018407;28;20187;-89
2024/01/25 06:18:18;;;;;;;0.60;0.60;;;7.90;99.90;;;;;;5018245;28;20187;-88
2024/01/25 06:20:44;;;;;;;0.80;0.80;;;7.90;99.90;;;;;;5017482;28;20191;-88
2024/01/25 06:25:45;;;;;;;0.70;0.70;;;7.80;1.00;;;;;;5034958;23;20239;-89
2024/01/25 06:28:10;;;;;;;0.70;0.70;;;7.90;99.90;;;;;;5018661;28;20553;-88
2024/01/25 06:30:36;;;;;;;0.67;0.67;;;7.80;99.90;;;;;;5021651;28;20201;-87
2024/01/25 06:33:03;;;;;;;0.70;0.70;;;7.80;99.90;;;;;;5013994;28;20266;-87
2024/01/25 06:35:28;;;;;;;0.70;0.70;;;7.80;99.90;;;;;;5021558;28;20716;-88
2024/01/25 06:37:54;;;;;;;0.70;0.70;;;7.80;99.90;;;;;;5015363;28;20223;-87
2024/01/25 06:40:20;;;;;;;0.60;0.60;;;7.80;99.90;;;;;;5016959;28;20188;-87
2024/01/25 06:42:45;;;;;;;0.70;0.70;;;8.00;99.90;;;;;;5015580;28;20200;-89
2024/01/25 06:45:11;;;;;;;0.70;0.70;;;7.80;99.90;;;;;;5015988;28;20176;-88
2024/01/25 06:47:36;;;;;;;0.80;0.80;;;7.80;99.90;;;;;;5015285;28;20268;-88
2024/01/25 06:50:02;;;;;;;0.60;0.60;;;7.70;1.00;;;;;;5015725;28;20593;-87
2024/01/25 06:52:28;;;;;;;0.70;0.70;;;7.70;1.00;;;;;;5015740;28;20200;-87
2024/01/25 06:54:55;;;;;;;0.83;0.83;;;7.70;1.00;;;;;;5016179;28;20279;-88
2024/01/25 06:57:20;;;;;;;0.77;0.77;;;7.70;26.60;;;;;;5014597;28;20279;-88
2024/01/25 06:59:46;;;;;;;0.60;0.60;;;7.70;1.00;;;;;;5014506;28;20219;-87
2024/01/25 07:02:12;;;;;;;0.80;0.80;;;7.60;1.00;;;;;;5015374;28;20189;-87
2024/01/25 07:04:40;;;;;;;0.70;0.70;;;7.60;91.60;;;;;;5015140;28;20172;-87
2024/01/25 07:07:06;;;;;;;0.80;0.80;;;7.60;99.90;;;;;;4998130;28;20246;-88
2024/01/25 07:09:32;;;;;;;0.60;0.60;;;7.60;80.20;;;;;;5014975;28;20181;-87
2024/01/25 07:11:59;;;;;;;0.80;0.80;;;7.50;76.00;;;;;;5014770;28;20200;-86
2024/01/25 07:14:24;;;;;;;0.73;0.73;;;7.40;1.00;;;;;;5014580;28;20184;-87
2024/01/25 07:16:50;;;;;;;0.80;0.80;;;7.40;1.00;;;;;;5013942;28;20304;-88
2024/01/25 07:19:15;;;;;;;0.60;0.60;;;7.30;1.00;;;;;;5014766;28;20180;-88
2024/01/25 07:21:41;;;;;;;0.70;0.70;;;7.30;99.90;;;;;;5015019;28;20188;-87
2024/01/25 07:24:06;;;;;;;0.70;0.70;;;7.30;1.00;;;;;;5014476;28;20191;-88
2024/01/25 07:26:32;;;;;;;0.70;0.70;;;7.40;22.90;;;;;;5014423;28;20207;-88
2024/01/25 07:28:59;;;;;;;0.70;0.70;;;7.40;77.10;;;;;;5014026;28;20881;-88
2024/01/25 07:31:26;;;;;;;0.67;0.67;;;7.60;99.90;;;;;;5015360;28;20225;-88
2024/01/25 07:33:52;;;;;;;0.60;0.60;;;7.80;41.70;;;;;;5030063;28;20176;-87
2024/01/25 07:36:18;;;;;;;0.70;0.70;;;8.00;1.00;;;;;;5032888;28;20216;-88
2024/01/25 07:38:46;;;;;;;0.60;0.60;;;8.20;99.90;;;;;;5032930;28;20195;-89
2024/01/25 07:41:12;;;;;;;0.70;0.70;;;8.80;1.00;;;;;;5017620;28;20191;-88
2024/01/25 07:43:38;;;;;;;0.50;0.50;;;9.50;1.00;;;;;;5015106;28;20184;-88
2024/01/25 07:46:03;;;;;;;0.60;0.60;;;10.20;99.90;;;;;;5015510;28;20200;-87
2024/01/25 07:48:29;;;;;;;0.50;0.50;;;11.00;1.00;;;;;;5015422;28;20172;-88
2024/01/25 07:50:54;;;;;;;0.47;0.47;;;11.80;99.90;;;;;;5015549;28;20568;-89
2024/01/25 07:53:20;;;;;;;0.50;0.50;;;12.60;99.90;;;;;;5016364;28;20172;-89
2024/01/25 07:55:46;;;;;;;0.40;0.40;;;13.10;1.00;;;;;;5015803;28;20236;-89
2024/01/25 07:58:11;;;;;;;0.47;0.47;;;13.90;1.00;;;;;;5016112;28;20185;-89
2024/01/25 08:00:37;;;;;;;0.50;0.50;;;14.60;1.00;;;;;;5014077;28;20186;-90
2024/01/25 08:03:03;;;;;;;0.40;0.40;;;15.20;1.00;;;;;;5013094;28;20609;-89
2024/01/25 08:05:28;;;;;;;0.40;0.40;;;15.80;1.00;;;;;;5013793;28;20717;-89
2024/01/25 08:07:54;;;;;;;0.33;0.33;;;16.40;1.00;;;;;;5013894;28;20211;-89
2024/01/25 08:10:19;;;;;;;0.40;0.40;;;17.00;1.00;;;;;;5014122;28;20172;-89
2024/01/25 08:12:47;;;;;;;0.40;0.40;;;17.50;1.00;;;;;;5014477;28;20222;-88
2024/01/25 08:15:14;;;;;;;0.40;0.40;;;17.80;1.00;;;;;;5013354;28;20316;-89
2024/01/25 08:17:39;;;;;;;0.30;0.30;;;17.90;1.00;;;;;;5013333;28;20694;-90
2024/01/25 08:20:09;;;;;;;0.40;0.40;;;18.20;1.00;;;;;;5014506;28;20175;-89
2024/01/25 08:22:35;;;;;;;0.40;0.40;;;18.40;1.00;;;;;;5013639;28;20200;-90
2024/01/25 08:25:01;;;;;;;0.40;0.40;;;18.60;1.00;;;;;;5014172;28;20219;-90
2024/01/25 08:27:31;;;;;;;0.40;0.40;;;18.90;1.00;;;;;;5015893;28;20188;-91
2024/01/25 08:29:58;;;;;;;0.50;0.50;;;19.20;1.00;;;;;;5016475;28;20180;-89
2024/01/25 08:32:24;;;;;;;0.40;0.40;;;19.40;1.00;;;;;;5027047;28;20224;-88
2024/01/25 08:34:49;;;;;;;0.60;0.60;;;19.60;1.00;;;;;;5038114;28;20164;-89
2024/01/25 08:37:15;;;;;;;0.50;0.50;;;20.30;1.00;;;;;;5038007;28;20172;-89
2024/01/25 08:39:40;;;;;;;0.40;0.40;;;20.60;1.00;;;;;;5037444;28;20275;-89
2024/01/25 08:42:06;;;;;;;0.50;0.50;;;20.60;1.00;;;;;;5037420;28;20164;-87
2024/01/25 08:44:32;;;;;;;0.50;0.50;;;21.00;1.00;;;;;;5054808;28;20184;-87
2024/01/25 08:46:57;;;;;;;0.50;0.50;;;21.10;1.00;;;;;;5056327;28;20260;-86
2024/01/25 08:49:24;;;;;;;0.50;0.50;;;21.60;1.00;;;;;;5053463;28;20668;-86
2024/01/25 08:51:50;;;;;;;0.40;0.40;;;21.70;1.00;;;;;;5034319;28;20215;-88
2024/01/25 08:54:15;;;;;;;0.47;0.47;;;21.80;1.00;;;;;;5033949;28;20650;-89
2024/01/25 08:56:41;;;;;;;0.70;0.70;;;21.90;1.00;;;;;;5036810;28;20218;-83
2024/01/25 08:59:07;;;;;;;0.50;0.50;;;21.80;1.00;;;;;;5035403;28;20176;-83
2024/01/25 09:01:36;;;;;;;0.40;0.40;;;22.00;1.00;;;;;;5035362;28;20620;-88
2024/01/25 09:04:02;;;;;;;0.50;0.50;;;22.40;1.00;;;;;;5035927;28;20712;-87
2024/01/25 09:06:30;;;;;;;0.60;0.60;;;22.90;1.00;;;;;;5035911;28;20271;-86
2024/01/25 09:08:55;;;;;;;0.40;0.40;;;22.60;1.00;;;;;;5026355;28;20251;-88
2024/01/25 09:11:21;;;;;;;0.50;0.50;;;22.40;1.00;;;;;;5019102;28;20745;-86
2024/01/25 09:13:47;;;;;;;0.50;0.50;;;23.10;1.00;;;;;;5017062;28;20180;-88
2024/01/25 09:16:17;;;;;;;0.57;0.57;;;22.90;1.00;;;;;;5017627;28;20208;-86
2024/01/25 09:18:43;;;;;;;0.60;0.60;;;23.10;1.00;;;;;;5032332;28;20176;-90
2024/01/25 09:21:08;;;;;;;0.47;0.47;;;22.80;1.00;;;;;;5041674;28;20175;-91
2024/01/25 09:23:34;;;;;;;0.40;0.40;;;23.00;1.00;;;;;;5041425;28;20184;-89
2024/01/25 09:26:00;;;;;;;0.53;0.53;;;22.20;1.00;;;;;;5041170;28;20203;-90
2024/01/25 09:28:26;;;;;;;0.50;0.50;;;22.50;1.00;;;;;;5041100;28;20168;-86
2024/01/25 09:30:52;;;;;;;0.50;0.50;;;22.80;1.00;;;;;;5039787;28;20213;-88
2024/01/25 09:33:18;;;;;;;0.70;0.70;;;23.10;1.00;;;;;;5017705;28;20184;-89
2024/01/25 09:35:46;;;;;;;0.57;0.57;;;23.30;1.00;;;;;;5016600;28;20173;-88
2024/01/25 09:38:12;;;;;;;0.50;0.50;;;23.80;1.00;;;;;;5019074;28;20168;-89
2024/01/25 09:40:38;;;;;;;0.40;0.40;;;24.00;1.00;;;;;;5007395;28;20270;-85
2024/01/25 09:43:03;;;;;;;0.53;0.53;;;23.90;1.00;;;;;;5017575;28;20239;-89
2024/01/25 09:45:31;;;;;;;0.50;0.50;;;24.10;1.00;;;;;;5015312;28;20712;-86
2024/01/25 09:47:57;;;;;;;0.60;0.60;;;23.70;1.00;;;;;;5016959;28;20195;-87
2024/01/25 09:50:23;;;;;;;0.53;0.53;;;23.80;1.00;;;;;;5017044;28;20268;-88
2024/01/25 09:52:59;;;;;;;0.50;0.50;;;23.40;1.00;;;;;;5015902;28;20204;-82
2024/01/25 09:55:26;;;;;;;0.60;0.60;;;23.00;1.00;;;;;;5036520;28;20172;-88
2024/01/25 09:57:57;;;;;;;0.50;0.50;;;23.00;1.00;;;;;;5029959;28;20204;-87
2024/01/25 10:00:23;;;;;;;0.60;0.60;;;;;;;;;;5035774;28;20210;-87
2024/01/25 10:02:50;;;;;;;0.30;0.30;;;;;;;;;;5039554;28;20187;-86
2024/01/25 10:05:16;;;;;;;0.57;0.57;;;;;;;;;;5022529;28;20193;-87
2024/01/25 10:07:43;;;;;;;0.40;0.40;;;;;;;;;;4997914;28;20316;-86
2024/01/25 10:10:10;;;;;;;0.40;0.40;;;;;;;;;;5015095;28;20223;-89
2024/01/25 10:12:40;;;;;;;0.40;0.40;;;;;;;;;;5016539;28;20220;-87
2024/01/25 10:15:07;;;;;;;0.33;0.33;;;;;;;;;;5016819;28;20201;-88
2024/01/25 10:17:33;;;;;;;0.40;0.40;;;;;;;;;;5014695;28;20255;-88
2024/01/25 10:19:59;;;;;;;0.40;0.40;;;;;;;;;;5014033;28;20181;-88
2024/01/25 10:22:25;;;;;;;0.40;0.40;;;;;;;;;;5015336;28;20183;-87
2024/01/25 10:24:53;;;;;;;0.40;0.40;;;;;;;;;;5015462;28;20208;-87
2024/01/25 10:27:19;;;;;;;0.40;0.40;;;;;;;;;;5014734;28;20681;-89
2024/01/25 10:29:45;;;;;;;0.30;0.30;;;;;;;;;;5021389;28;20192;-89
2024/01/25 10:32:11;;;;;;;0.33;0.33;;;;;;;;;;5016395;28;20204;-90
2024/01/25 10:34:37;;;;;;;0.30;0.30;;;;;;;;;;5015108;28;20622;-92
2024/01/25 10:37:07;;;;;;;0.40;0.40;;;;;;;;;;5015412;28;20215;-88
2024/01/25 10:39:33;;;;;;;0.30;0.30;;;;;;;;;;5015008;28;20238;-89
2024/01/25 10:42:00;;;;;;;0.37;0.37;;;;;;;;;;5013875;28;20187;-90
2024/01/25 10:44:26;;;;;;;0.40;0.40;;;;;;;;;;5015050;28;20236;-85
2024/01/25 10:46:54;;;;;;;0.40;0.40;;;;;;;;;;5014456;28;20219;-90
2024/01/25 10:49:20;;;;;;;0.30;0.30;;;;;;;;;;5014338;28;20189;-86
2024/01/25 10:51:46;;;;;;;0.37;0.37;;;;;;;;;;5015086;28;20270;-89
2024/01/25 10:54:14;;;;;;;0.30;0.30;;;;;;;;;;5014472;28;20177;-86
2024/01/25 10:56:41;;;;;;;0.40;0.40;;;;;;;;;;5013505;28;20672;-85
2024/01/25 10:59:09;;;;;;;0.30;0.30;;;;;;;;;;5020675;28;20207;-89
2024/01/25 11:01:35;;;;;;;0.40;0.40;;;;;;;;;;5013615;28;20181;-88
2024/01/25 11:04:01;;;;;;;0.40;0.40;;;;;;;;;;5015507;28;20207;-88
2024/01/25 11:06:28;;;;;;;0.40;0.40;;;;;;;;;;5012043;28;20314;-87
2024/01/25 11:09:06;;;;;;;0.40;0.40;;;;;;;;;;5014825;28;20181;-87
2024/01/25 11:11:32;;;;;;;0.43;0.43;;;;;;;;;;5014291;28;20693;-90
2024/01/25 11:14:00;;;;;;;0.43;0.43;;;;;;;;;;5014175;28;20180;-87
2024/01/25 11:16:31;;;;;;;0.43;0.43;;;;;;;;;;5010440;28;20210;-88
2024/01/25 11:19:04;;;;;;;0.30;0.30;;;;;;;;;;5014389;28;20180;-90
2024/01/25 11:21:39;;;;;;;0.30;0.30;;;;;;;;;;5027621;28;20183;-87
2024/01/25 11:24:06;;;;;;;0.40;0.40;;;;;;;;;;5037001;28;20183;-85
2024/01/25 11:26:35;;;;;;;0.30;0.30;;;;;;;;;;5036138;28;20188;-87
2024/01/25 11:29:01;;;;;;;0.40;0.40;;;;;;;;;;5037429;28;20240;-87
2024/01/25 11:31:28;;;;;;;0.40;0.40;;;;;;;;;;5038325;28;20288;-85
2024/01/25 11:33:58;;;;;;;0.40;0.40;;;;;;;;;;5022040;28;20180;-89
2024/01/25 11:36:25;;;;;;;0.40;0.40;;;;;;;;;;5036378;28;20215;-87
2024/01/25 11:38:51;;;;;;;0.30;0.30;;;;;;;;;;5035111;28;20181;-87
2024/01/25 11:41:17;;;;;;;0.40;0.40;;;;;;;;;;5008078;28;20239;-88
2024/01/25 11:43:43;;;;;;;0.37;0.37;;;;;;;;;;5005767;28;20176;-89
2024/01/25 11:46:09;;;;;;;0.30;0.30;;;;;;;;;;5013510;28;20192;-86
2024/01/25 11:48:39;;;;;;;0.37;0.37;;;;;;;;;;5014857;28;20201;-86
2024/01/25 11:51:05;;;;;;;0.40;0.40;;;;;;;;;;5013297;28;20204;-87
2024/01/25 11:53:31;;;;;;;0.37;0.37;;;;;;;;;;5014522;28;20203;-87
2024/01/25 11:55:57;;;;;;;0.37;0.37;;;;;;;;;;5014688;28;20212;-84
2024/01/25 11:58:24;;;;;;;0.40;0.40;;;;;;;;;;5028401;28;20180;-83
2024/01/25 12:00:50;;;;;;;0.40;0.40;;;;;;;;;;5022722;28;20187;-85
2024/01/25 12:03:16;;;;;;;0.40;0.40;;;;;;;;;;5017893;28;20196;-86
2024/01/25 12:05:42;;;;;;;0.40;0.40;;;;;;;;;;5013828;28;20168;-87
2024/01/25 12:08:09;;;;;;;0.50;0.50;;;;;;;;;;5015227;28;20249;-86
2024/01/25 12:10:36;;;;;;;0.40;0.40;;;;;;;;;;5012264;28;20184;-88
2024/01/25 12:13:02;;;;;;;0.40;0.40;;;;;;;;;;5014044;28;20267;-86
2024/01/25 12:15:27;;;;;;;0.40;0.40;;;;;;;;;;5013987;28;20262;-87
2024/01/25 12:17:54;;;;;;;0.40;0.40;;;;;;;;;;5018807;28;20204;-86
2024/01/25 12:20:21;;;;;;;0.40;0.40;;;;;;;;;;5013386;28;20168;-85
2024/01/25 12:22:49;;;;;;;0.50;0.50;;;;;;;;;;5013402;28;20263;-85
2024/01/25 12:25:15;;;;;;;0.40;0.40;;;;;;;;;;5015244;28;20196;-86
2024/01/25 12:27:41;;;;;;;0.50;0.50;;;;;;;;;;5027526;28;20197;-86
2024/01/25 12:30:08;;;;;;;0.40;0.40;;;;;;;;;;5025749;28;20193;-86
2024/01/25 12:32:34;;;;;;;0.50;0.50;;;;;;;;;;5018738;28;20251;-86
2024/01/25 12:35:01;;;;;;;0.37;0.37;;;;;;;;;;5014925;28;20271;-86
2024/01/25 12:37:27;;;;;;;0.40;0.40;;;;;;;;;;5013639;28;20207;-86
2024/01/25 12:39:53;;;;;;;0.40;0.40;;;;;;;;;;5014226;28;20176;-89
2024/01/25 12:42:20;;;;;;;0.33;0.33;;;;;;;;;;5014360;28;20177;-86
2024/01/25 12:44:46;;;;;;;0.30;0.30;;;;;;;;;;5014671;28;20184;-88
2024/01/25 12:47:15;;;;;;;0.43;0.43;;;;;;;;;;5013783;28;20204;-86
2024/01/25 12:49:41;;;;;;;0.40;0.40;;;;;;;;;;5012268;28;20180;-87
2024/01/25 12:52:09;;;;;;;0.50;0.50;;;;;;;;;;5015577;28;20635;-89
2024/01/25 12:54:35;;;;;;;0.43;0.43;;;;;;;;;;5016587;28;20193;-87
2024/01/25 12:57:01;;;;;;;0.30;0.30;;;;;;;;;;5030952;28;20185;-82
2024/01/25 12:59:27;;;;;;;0.40;0.40;;;;;;;;;;5029056;28;20191;-85
2024/01/25 13:01:53;;;;;;;0.40;0.40;;;;;;;;;;5014063;28;20200;-86
2024/01/25 13:04:20;;;;;;;0.33;0.33;;;;;;;;;;5011939;28;20184;-88
2024/01/25 13:06:48;;;;;;;0.40;0.40;;;;;;;;;;5012145;28;20197;-88
2024/01/25 13:09:14;;;;;;;0.30;0.30;;;;;;;;;;5011431;28;20181;-87
2024/01/25 13:11:41;;;;;;;0.30;0.30;;;;;;;;;;5012295;28;20226;-88
2024/01/25 13:14:07;;;;;;;0.30;0.30;;;;;;;;;;5011071;28;20196;-84
2024/01/25 13:16:33;;;;;;;0.50;0.50;;;;;;;;;;5010709;28;20608;-87
2024/01/25 13:19:00;;;;;;;0.30;0.30;;;;;;;;;;5010900;28;20207;-86
2024/01/25 13:21:26;;;;;;;0.30;0.30;;;;;;;;;;5014312;28;20204;-89